sensor_id;sensor_type;location;lat;lon;timestamp;P1;durP1;ratioP1;P2;durP2;ratioP2
80985;SDS011;70451;51.226;6.412;2023-07-31T00:00:10;10.13;;;3.15;;
80985;SDS011;70451;51.226;6.412;2023-07-31T00:02:26;9.27;;;2.85;;
80985;SDS011;70451;51.226;6.412;2023-07-31T00:04:41;8.38;;;3.42;;
80985;SDS011;70451;51.226;6.412;2023-07-31T00:06:56;6.38;;;3.03;;
80985;SDS011;70451;51.226;6.412;2023-07-31T00:09:12;11.35;;;3.10;;
80985;SDS011;70451;51.226;6.412;2023-07-31T00:11:27;9.65;;;3.13;;
80985;SDS011;70451;51.226;6.412;2023-07-31T00:13:42;8.18;;;3.03;;
80985;SDS011;70451;51.226;6.412;2023-07-31T00:15:58;10.93;;;3.42;;
80985;SDS011;70451;51.226;6.412;2023-07-31T00:18:14;13.80;;;3.30;;
80985;SDS011;70451;51.226;6.412;2023-07-31T00:20:30;9.57;;;3.85;;
80985;SDS011;70451;51.226;6.412;2023-07-31T00:22:45;10.98;;;3.33;;
80985;SDS011;70451;51.226;6.412;2023-07-31T00:25:00;10.53;;;3.47;;
80985;SDS011;70451;51.226;6.412;2023-07-31T00:27:16;8.13;;;2.83;;
80985;SDS011;70451;51.226;6.412;2023-07-31T00:29:31;12.50;;;3.20;;
80985;SDS011;70451;51.226;6.412;2023-07-31T00:31:46;8.13;;;3.15;;
80985;SDS011;70451;51.226;6.412;2023-07-31T00:34:02;7.60;;;3.05;;
80985;SDS011;70451;51.226;6.412;2023-07-31T00:36:17;9.35;;;3.47;;
80985;SDS011;70451;51.226;6.412;2023-07-31T00:38:33;9.20;;;3.10;;
80985;SDS011;70451;51.226;6.412;2023-07-31T00:40:48;9.32;;;3.33;;
80985;SDS011;70451;51.226;6.412;2023-07-31T00:43:03;9.98;;;3.17;;
80985;SDS011;70451;51.226;6.412;2023-07-31T00:45:19;8.20;;;2.47;;
80985;SDS011;70451;51.226;6.412;2023-07-31T00:47:35;9.82;;;3.40;;
80985;SDS011;70451;51.226;6.412;2023-07-31T00:49:51;6.90;;;3.03;;
80985;SDS011;70451;51.226;6.412;2023-07-31T00:52:07;15.98;;;3.45;;
80985;SDS011;70451;51.226;6.412;2023-07-31T00:54:22;6.82;;;2.78;;
80985;SDS011;70451;51.226;6.412;2023-07-31T00:56:38;10.57;;;2.65;;
80985;SDS011;70451;51.226;6.412;2023-07-31T00:58:55;7.03;;;2.78;;
80985;SDS011;70451;51.226;6.412;2023-07-31T01:01:11;8.98;;;2.72;;
80985;SDS011;70451;51.226;6.412;2023-07-31T01:03:26;10.67;;;3.20;;
80985;SDS011;70451;51.226;6.412;2023-07-31T01:05:43;6.97;;;3.10;;
80985;SDS011;70451;51.226;6.412;2023-07-31T01:08:12;9.80;;;3.00;;
80985;SDS011;70451;51.226;6.412;2023-07-31T01:10:30;7.75;;;2.58;;
80985;SDS011;70451;51.226;6.412;2023-07-31T01:12:52;9.77;;;3.38;;
80985;SDS011;70451;51.226;6.412;2023-07-31T01:15:08;8.27;;;3.15;;
80985;SDS011;70451;51.226;6.412;2023-07-31T01:17:27;5.82;;;2.40;;
80985;SDS011;70451;51.226;6.412;2023-07-31T01:19:42;4.70;;;2.22;;
80985;SDS011;70451;51.226;6.412;2023-07-31T01:27:19;9.18;;;3.08;;
80985;SDS011;70451;51.226;6.412;2023-07-31T01:29:41;9.90;;;2.72;;
80985;SDS011;70451;51.226;6.412;2023-07-31T01:32:04;8.95;;;3.17;;
80985;SDS011;70451;51.226;6.412;2023-07-31T01:34:21;5.25;;;2.47;;
80985;SDS011;70451;51.226;6.412;2023-07-31T01:36:37;10.13;;;2.92;;
80985;SDS011;70451;51.226;6.412;2023-07-31T01:38:53;11.38;;;3.10;;
80985;SDS011;70451;51.226;6.412;2023-07-31T01:41:13;9.82;;;2.90;;
80985;SDS011;70451;51.226;6.412;2023-07-31T01:43:28;11.07;;;3.40;;
80985;SDS011;70451;51.226;6.412;2023-07-31T01:45:44;13.68;;;3.10;;
80985;SDS011;70451;51.226;6.412;2023-07-31T01:47:59;8.80;;;2.95;;
80985;SDS011;70451;51.226;6.412;2023-07-31T01:50:14;8.88;;;2.97;;
80985;SDS011;70451;51.226;6.412;2023-07-31T01:52:29;12.75;;;3.33;;
80985;SDS011;70451;51.226;6.412;2023-07-31T01:54:45;6.70;;;3.22;;
80985;SDS011;70451;51.226;6.412;2023-07-31T01:57:00;9.82;;;2.90;;
80985;SDS011;70451;51.226;6.412;2023-07-31T01:59:15;11.50;;;3.10;;
80985;SDS011;70451;51.226;6.412;2023-07-31T02:01:31;7.78;;;3.25;;
80985;SDS011;70451;51.226;6.412;2023-07-31T02:03:46;8.88;;;3.15;;
80985;SDS011;70451;51.226;6.412;2023-07-31T02:06:01;9.70;;;2.90;;
80985;SDS011;70451;51.226;6.412;2023-07-31T02:08:17;8.50;;;2.38;;
80985;SDS011;70451;51.226;6.412;2023-07-31T02:10:32;7.35;;;2.58;;
80985;SDS011;70451;51.226;6.412;2023-07-31T02:12:47;9.27;;;2.88;;
80985;SDS011;70451;51.226;6.412;2023-07-31T02:15:03;12.10;;;3.60;;
80985;SDS011;70451;51.226;6.412;2023-07-31T02:17:18;12.00;;;3.10;;
80985;SDS011;70451;51.226;6.412;2023-07-31T02:19:33;9.68;;;3.05;;
80985;SDS011;70451;51.226;6.412;2023-07-31T02:21:49;9.25;;;2.88;;
80985;SDS011;70451;51.226;6.412;2023-07-31T02:24:04;9.02;;;2.90;;
80985;SDS011;70451;51.226;6.412;2023-07-31T02:26:19;8.30;;;3.03;;
80985;SDS011;70451;51.226;6.412;2023-07-31T02:28:35;8.63;;;2.92;;
80985;SDS011;70451;51.226;6.412;2023-07-31T02:30:50;8.70;;;2.72;;
80985;SDS011;70451;51.226;6.412;2023-07-31T02:33:07;9.25;;;2.88;;
80985;SDS011;70451;51.226;6.412;2023-07-31T02:35:22;9.60;;;2.80;;
80985;SDS011;70451;51.226;6.412;2023-07-31T02:37:37;9.85;;;3.60;;
80985;SDS011;70451;51.226;6.412;2023-07-31T02:39:54;11.73;;;3.03;;
80985;SDS011;70451;51.226;6.412;2023-07-31T02:42:09;11.07;;;3.00;;
80985;SDS011;70451;51.226;6.412;2023-07-31T02:44:24;6.47;;;2.75;;
80985;SDS011;70451;51.226;6.412;2023-07-31T02:46:40;10.40;;;3.40;;
80985;SDS011;70451;51.226;6.412;2023-07-31T02:48:55;9.57;;;3.28;;
80985;SDS011;70451;51.226;6.412;2023-07-31T02:51:10;9.48;;;3.10;;
80985;SDS011;70451;51.226;6.412;2023-07-31T02:53:26;8.63;;;3.22;;
80985;SDS011;70451;51.226;6.412;2023-07-31T02:55:41;8.00;;;3.13;;
80985;SDS011;70451;51.226;6.412;2023-07-31T02:57:56;10.80;;;3.28;;
80985;SDS011;70451;51.226;6.412;2023-07-31T03:00:13;8.50;;;3.00;;
80985;SDS011;70451;51.226;6.412;2023-07-31T03:02:28;8.65;;;3.17;;
80985;SDS011;70451;51.226;6.412;2023-07-31T03:04:43;7.70;;;3.28;;
80985;SDS011;70451;51.226;6.412;2023-07-31T03:06:59;7.85;;;3.10;;
80985;SDS011;70451;51.226;6.412;2023-07-31T03:09:14;11.00;;;3.50;;
80985;SDS011;70451;51.226;6.412;2023-07-31T03:11:30;7.00;;;2.85;;
80985;SDS011;70451;51.226;6.412;2023-07-31T03:13:45;9.57;;;3.28;;
80985;SDS011;70451;51.226;6.412;2023-07-31T03:16:00;9.82;;;3.40;;
80985;SDS011;70451;51.226;6.412;2023-07-31T03:18:15;8.68;;;3.97;;
80985;SDS011;70451;51.226;6.412;2023-07-31T03:20:31;8.70;;;3.20;;
80985;SDS011;70451;51.226;6.412;2023-07-31T03:22:46;7.05;;;3.30;;
80985;SDS011;70451;51.226;6.412;2023-07-31T03:25:02;11.15;;;4.03;;
80985;SDS011;70451;51.226;6.412;2023-07-31T03:27:18;11.13;;;3.97;;
80985;SDS011;70451;51.226;6.412;2023-07-31T03:29:33;7.65;;;3.60;;
80985;SDS011;70451;51.226;6.412;2023-07-31T03:31:48;9.30;;;3.20;;
80985;SDS011;70451;51.226;6.412;2023-07-31T03:34:04;8.80;;;3.60;;
80985;SDS011;70451;51.226;6.412;2023-07-31T03:36:19;10.48;;;3.58;;
80985;SDS011;70451;51.226;6.412;2023-07-31T03:38:34;9.43;;;3.72;;
80985;SDS011;70451;51.226;6.412;2023-07-31T03:40:50;8.00;;;3.17;;
80985;SDS011;70451;51.226;6.412;2023-07-31T03:43:05;7.80;;;3.22;;
80985;SDS011;70451;51.226;6.412;2023-07-31T03:45:20;8.18;;;3.08;;
80985;SDS011;70451;51.226;6.412;2023-07-31T03:47:36;8.80;;;3.88;;
80985;SDS011;70451;51.226;6.412;2023-07-31T03:49:51;7.47;;;3.00;;
80985;SDS011;70451;51.226;6.412;2023-07-31T03:52:06;10.25;;;3.15;;
80985;SDS011;70451;51.226;6.412;2023-07-31T03:54:22;8.68;;;3.03;;
80985;SDS011;70451;51.226;6.412;2023-07-31T03:56:37;16.50;;;3.47;;
80985;SDS011;70451;51.226;6.412;2023-07-31T03:58:53;10.10;;;3.67;;
80985;SDS011;70451;51.226;6.412;2023-07-31T04:01:08;8.48;;;3.15;;
80985;SDS011;70451;51.226;6.412;2023-07-31T04:03:24;10.98;;;4.07;;
80985;SDS011;70451;51.226;6.412;2023-07-31T04:05:39;7.57;;;2.92;;
80985;SDS011;70451;51.226;6.412;2023-07-31T04:07:55;8.02;;;3.40;;
80985;SDS011;70451;51.226;6.412;2023-07-31T04:10:10;8.00;;;2.72;;
80985;SDS011;70451;51.226;6.412;2023-07-31T04:12:26;8.38;;;3.58;;
80985;SDS011;70451;51.226;6.412;2023-07-31T04:14:41;7.20;;;3.50;;
80985;SDS011;70451;51.226;6.412;2023-07-31T04:16:56;7.20;;;3.28;;
80985;SDS011;70451;51.226;6.412;2023-07-31T04:19:11;10.75;;;3.38;;
80985;SDS011;70451;51.226;6.412;2023-07-31T04:21:31;8.57;;;3.30;;
80985;SDS011;70451;51.226;6.412;2023-07-31T04:23:46;12.80;;;3.95;;
80985;SDS011;70451;51.226;6.412;2023-07-31T04:26:01;8.68;;;3.17;;
80985;SDS011;70451;51.226;6.412;2023-07-31T04:28:17;10.82;;;3.47;;
80985;SDS011;70451;51.226;6.412;2023-07-31T04:30:32;11.05;;;3.55;;
80985;SDS011;70451;51.226;6.412;2023-07-31T04:32:47;7.35;;;3.40;;
80985;SDS011;70451;51.226;6.412;2023-07-31T04:35:03;9.02;;;3.63;;
80985;SDS011;70451;51.226;6.412;2023-07-31T04:37:18;10.02;;;3.90;;
80985;SDS011;70451;51.226;6.412;2023-07-31T04:39:34;10.38;;;4.07;;
80985;SDS011;70451;51.226;6.412;2023-07-31T04:41:49;7.10;;;3.20;;
80985;SDS011;70451;51.226;6.412;2023-07-31T04:44:04;7.97;;;3.53;;
80985;SDS011;70451;51.226;6.412;2023-07-31T04:46:20;8.85;;;3.67;;
80985;SDS011;70451;51.226;6.412;2023-07-31T04:48:35;7.97;;;3.45;;
80985;SDS011;70451;51.226;6.412;2023-07-31T04:50:50;8.20;;;3.50;;
80985;SDS011;70451;51.226;6.412;2023-07-31T04:53:05;10.60;;;3.80;;
80985;SDS011;70451;51.226;6.412;2023-07-31T04:55:21;5.50;;;3.17;;
80985;SDS011;70451;51.226;6.412;2023-07-31T04:57:36;8.65;;;3.53;;
80985;SDS011;70451;51.226;6.412;2023-07-31T04:59:51;10.82;;;3.80;;
80985;SDS011;70451;51.226;6.412;2023-07-31T05:02:08;7.47;;;3.50;;
80985;SDS011;70451;51.226;6.412;2023-07-31T05:04:23;7.88;;;3.65;;
80985;SDS011;70451;51.226;6.412;2023-07-31T05:06:38;9.73;;;3.38;;
80985;SDS011;70451;51.226;6.412;2023-07-31T05:08:54;7.80;;;3.58;;
80985;SDS011;70451;51.226;6.412;2023-07-31T05:11:09;11.27;;;3.90;;
80985;SDS011;70451;51.226;6.412;2023-07-31T05:13:24;6.13;;;3.05;;
80985;SDS011;70451;51.226;6.412;2023-07-31T05:15:40;6.93;;;3.42;;
80985;SDS011;70451;51.226;6.412;2023-07-31T05:17:56;9.27;;;3.17;;
80985;SDS011;70451;51.226;6.412;2023-07-31T05:20:11;8.35;;;3.70;;
80985;SDS011;70451;51.226;6.412;2023-07-31T05:22:27;7.82;;;3.75;;
80985;SDS011;70451;51.226;6.412;2023-07-31T05:24:43;6.82;;;3.40;;
80985;SDS011;70451;51.226;6.412;2023-07-31T05:26:58;7.50;;;3.35;;
80985;SDS011;70451;51.226;6.412;2023-07-31T05:29:13;5.88;;;3.13;;
80985;SDS011;70451;51.226;6.412;2023-07-31T05:31:29;11.15;;;3.58;;
80985;SDS011;70451;51.226;6.412;2023-07-31T05:33:44;9.35;;;3.50;;
80985;SDS011;70451;51.226;6.412;2023-07-31T05:35:59;7.18;;;3.20;;
80985;SDS011;70451;51.226;6.412;2023-07-31T05:38:14;7.50;;;3.60;;
80985;SDS011;70451;51.226;6.412;2023-07-31T05:40:32;5.28;;;3.20;;
80985;SDS011;70451;51.226;6.412;2023-07-31T05:42:48;8.20;;;3.40;;
80985;SDS011;70451;51.226;6.412;2023-07-31T05:45:03;4.80;;;2.65;;
80985;SDS011;70451;51.226;6.412;2023-07-31T05:47:20;5.15;;;3.10;;
80985;SDS011;70451;51.226;6.412;2023-07-31T05:49:35;6.28;;;3.03;;
80985;SDS011;70451;51.226;6.412;2023-07-31T05:51:50;10.38;;;3.72;;
80985;SDS011;70451;51.226;6.412;2023-07-31T05:54:05;5.82;;;3.45;;
80985;SDS011;70451;51.226;6.412;2023-07-31T05:56:21;8.88;;;3.97;;
80985;SDS011;70451;51.226;6.412;2023-07-31T05:58:36;10.95;;;3.45;;
80985;SDS011;70451;51.226;6.412;2023-07-31T06:00:52;6.60;;;3.70;;
80985;SDS011;70451;51.226;6.412;2023-07-31T06:03:07;8.38;;;3.65;;
80985;SDS011;70451;51.226;6.412;2023-07-31T06:05:22;6.82;;;3.50;;
80985;SDS011;70451;51.226;6.412;2023-07-31T06:07:37;6.20;;;3.63;;
80985;SDS011;70451;51.226;6.412;2023-07-31T06:09:53;6.85;;;3.50;;
80985;SDS011;70451;51.226;6.412;2023-07-31T06:12:09;7.03;;;3.10;;
80985;SDS011;70451;51.226;6.412;2023-07-31T06:14:25;8.45;;;3.50;;
80985;SDS011;70451;51.226;6.412;2023-07-31T06:16:40;8.57;;;3.95;;
80985;SDS011;70451;51.226;6.412;2023-07-31T06:18:56;7.68;;;3.58;;
80985;SDS011;70451;51.226;6.412;2023-07-31T06:21:11;5.72;;;3.35;;
80985;SDS011;70451;51.226;6.412;2023-07-31T06:23:26;8.43;;;3.22;;
80985;SDS011;70451;51.226;6.412;2023-07-31T06:25:42;8.18;;;3.42;;
80985;SDS011;70451;51.226;6.412;2023-07-31T06:27:57;8.30;;;3.47;;
80985;SDS011;70451;51.226;6.412;2023-07-31T06:30:12;8.52;;;5.22;;
80985;SDS011;70451;51.226;6.412;2023-07-31T06:32:28;5.18;;;2.95;;
80985;SDS011;70451;51.226;6.412;2023-07-31T06:34:43;13.10;;;3.47;;
80985;SDS011;70451;51.226;6.412;2023-07-31T06:36:58;8.70;;;3.38;;
80985;SDS011;70451;51.226;6.412;2023-07-31T06:39:14;8.02;;;3.40;;
80985;SDS011;70451;51.226;6.412;2023-07-31T06:41:29;8.05;;;3.25;;
80985;SDS011;70451;51.226;6.412;2023-07-31T06:43:44;7.55;;;3.30;;
80985;SDS011;70451;51.226;6.412;2023-07-31T06:46:04;7.95;;;3.30;;
80985;SDS011;70451;51.226;6.412;2023-07-31T06:48:20;8.48;;;3.47;;
80985;SDS011;70451;51.226;6.412;2023-07-31T06:50:35;9.90;;;3.03;;
80985;SDS011;70451;51.226;6.412;2023-07-31T06:52:51;9.07;;;3.35;;
80985;SDS011;70451;51.226;6.412;2023-07-31T06:55:16;7.13;;;3.60;;
80985;SDS011;70451;51.226;6.412;2023-07-31T06:57:33;8.05;;;3.42;;
80985;SDS011;70451;51.226;6.412;2023-07-31T06:59:49;8.88;;;3.50;;
80985;SDS011;70451;51.226;6.412;2023-07-31T07:02:04;9.88;;;4.03;;
80985;SDS011;70451;51.226;6.412;2023-07-31T07:04:20;11.48;;;3.80;;
80985;SDS011;70451;51.226;6.412;2023-07-31T07:06:35;13.07;;;3.45;;
80985;SDS011;70451;51.226;6.412;2023-07-31T07:08:50;8.57;;;3.40;;
80985;SDS011;70451;51.226;6.412;2023-07-31T07:11:06;8.38;;;3.17;;
80985;SDS011;70451;51.226;6.412;2023-07-31T07:13:21;6.38;;;3.33;;
80985;SDS011;70451;51.226;6.412;2023-07-31T07:15:37;6.63;;;2.95;;
80985;SDS011;70451;51.226;6.412;2023-07-31T07:17:52;8.73;;;3.10;;
80985;SDS011;70451;51.226;6.412;2023-07-31T07:20:07;9.60;;;3.23;;
80985;SDS011;70451;51.226;6.412;2023-07-31T07:22:23;6.68;;;3.25;;
80985;SDS011;70451;51.226;6.412;2023-07-31T07:24:39;8.15;;;3.33;;
80985;SDS011;70451;51.226;6.412;2023-07-31T07:26:54;8.57;;;3.53;;
80985;SDS011;70451;51.226;6.412;2023-07-31T07:29:09;7.18;;;3.17;;
80985;SDS011;70451;51.226;6.412;2023-07-31T07:31:25;8.68;;;3.28;;
80985;SDS011;70451;51.226;6.412;2023-07-31T07:33:41;6.95;;;3.20;;
80985;SDS011;70451;51.226;6.412;2023-07-31T07:35:59;8.55;;;2.95;;
80985;SDS011;70451;51.226;6.412;2023-07-31T07:38:15;6.55;;;3.20;;
80985;SDS011;70451;51.226;6.412;2023-07-31T07:40:31;7.35;;;2.85;;
80985;SDS011;70451;51.226;6.412;2023-07-31T07:42:46;7.70;;;2.78;;
80985;SDS011;70451;51.226;6.412;2023-07-31T07:45:02;5.15;;;2.65;;
80985;SDS011;70451;51.226;6.412;2023-07-31T07:47:18;6.15;;;3.05;;
80985;SDS011;70451;51.226;6.412;2023-07-31T07:49:33;5.25;;;3.22;;
80985;SDS011;70451;51.226;6.412;2023-07-31T07:51:49;6.25;;;2.78;;
80985;SDS011;70451;51.226;6.412;2023-07-31T07:54:06;5.93;;;2.80;;
80985;SDS011;70451;51.226;6.412;2023-07-31T07:56:21;5.68;;;2.63;;
80985;SDS011;70451;51.226;6.412;2023-07-31T07:58:37;5.43;;;2.53;;
80985;SDS011;70451;51.226;6.412;2023-07-31T08:00:52;4.60;;;2.72;;
80985;SDS011;70451;51.226;6.412;2023-07-31T08:03:08;5.65;;;2.92;;
80985;SDS011;70451;51.226;6.412;2023-07-31T08:05:24;4.75;;;2.47;;
80985;SDS011;70451;51.226;6.412;2023-07-31T08:07:40;5.47;;;2.88;;
80985;SDS011;70451;51.226;6.412;2023-07-31T08:09:55;3.15;;;2.30;;
80985;SDS011;70451;51.226;6.412;2023-07-31T08:12:10;5.10;;;2.75;;
80985;SDS011;70451;51.226;6.412;2023-07-31T08:14:26;7.28;;;2.60;;
80985;SDS011;70451;51.226;6.412;2023-07-31T08:16:41;4.77;;;2.87;;
80985;SDS011;70451;51.226;6.412;2023-07-31T08:18:57;7.03;;;2.83;;
80985;SDS011;70451;51.226;6.412;2023-07-31T08:21:12;5.57;;;2.65;;
80985;SDS011;70451;51.226;6.412;2023-07-31T08:23:27;5.25;;;2.92;;
80985;SDS011;70451;51.226;6.412;2023-07-31T08:25:43;7.57;;;2.63;;
80985;SDS011;70451;51.226;6.412;2023-07-31T08:27:58;6.07;;;2.47;;
80985;SDS011;70451;51.226;6.412;2023-07-31T08:30:13;9.30;;;2.80;;
80985;SDS011;70451;51.226;6.412;2023-07-31T08:32:28;5.75;;;2.85;;
80985;SDS011;70451;51.226;6.412;2023-07-31T08:34:44;4.40;;;2.67;;
80985;SDS011;70451;51.226;6.412;2023-07-31T08:36:59;4.97;;;2.30;;
80985;SDS011;70451;51.226;6.412;2023-07-31T08:39:14;6.10;;;2.55;;
80985;SDS011;70451;51.226;6.412;2023-07-31T08:41:30;3.78;;;2.40;;
80985;SDS011;70451;51.226;6.412;2023-07-31T08:43:45;6.38;;;2.67;;
80985;SDS011;70451;51.226;6.412;2023-07-31T08:46:01;6.82;;;2.63;;
80985;SDS011;70451;51.226;6.412;2023-07-31T08:48:17;6.50;;;2.92;;
80985;SDS011;70451;51.226;6.412;2023-07-31T08:50:34;7.25;;;2.90;;
80985;SDS011;70451;51.226;6.412;2023-07-31T08:52:50;4.55;;;2.70;;
80985;SDS011;70451;51.226;6.412;2023-07-31T08:55:06;5.20;;;2.42;;
80985;SDS011;70451;51.226;6.412;2023-07-31T08:57:22;3.92;;;2.70;;
80985;SDS011;70451;51.226;6.412;2023-07-31T08:59:39;5.90;;;3.05;;
80985;SDS011;70451;51.226;6.412;2023-07-31T09:01:55;5.43;;;2.40;;
80985;SDS011;70451;51.226;6.412;2023-07-31T09:04:15;6.47;;;2.60;;
80985;SDS011;70451;51.226;6.412;2023-07-31T09:06:33;6.25;;;2.65;;
80985;SDS011;70451;51.226;6.412;2023-07-31T09:08:49;6.72;;;3.05;;
80985;SDS011;70451;51.226;6.412;2023-07-31T09:11:05;6.60;;;2.58;;
80985;SDS011;70451;51.226;6.412;2023-07-31T09:13:20;6.18;;;2.60;;
80985;SDS011;70451;51.226;6.412;2023-07-31T09:15:36;4.97;;;2.78;;
80985;SDS011;70451;51.226;6.412;2023-07-31T09:17:58;5.07;;;2.95;;
80985;SDS011;70451;51.226;6.412;2023-07-31T09:22:34;7.85;;;3.00;;
80985;SDS011;70451;51.226;6.412;2023-07-31T09:24:50;4.85;;;2.55;;
80985;SDS011;70451;51.226;6.412;2023-07-31T09:27:05;4.90;;;2.80;;
80985;SDS011;70451;51.226;6.412;2023-07-31T09:29:21;5.38;;;2.28;;
80985;SDS011;70451;51.226;6.412;2023-07-31T09:31:40;5.38;;;2.50;;
80985;SDS011;70451;51.226;6.412;2023-07-31T09:33:56;5.68;;;2.63;;
80985;SDS011;70451;51.226;6.412;2023-07-31T09:36:11;6.72;;;2.80;;
80985;SDS011;70451;51.226;6.412;2023-07-31T09:38:26;8.13;;;2.73;;
80985;SDS011;70451;51.226;6.412;2023-07-31T09:40:43;6.43;;;2.67;;
80985;SDS011;70451;51.226;6.412;2023-07-31T09:43:06;4.72;;;2.45;;
80985;SDS011;70451;51.226;6.412;2023-07-31T09:45:23;6.93;;;2.70;;
80985;SDS011;70451;51.226;6.412;2023-07-31T09:47:38;5.22;;;2.70;;
80985;SDS011;70451;51.226;6.412;2023-07-31T09:49:54;6.40;;;2.60;;
80985;SDS011;70451;51.226;6.412;2023-07-31T09:52:11;6.35;;;3.00;;
80985;SDS011;70451;51.226;6.412;2023-07-31T09:54:28;6.68;;;2.90;;
80985;SDS011;70451;51.226;6.412;2023-07-31T09:58:59;6.25;;;2.42;;
80985;SDS011;70451;51.226;6.412;2023-07-31T10:01:14;4.68;;;2.83;;
80985;SDS011;70451;51.226;6.412;2023-07-31T10:03:30;6.05;;;2.90;;
80985;SDS011;70451;51.226;6.412;2023-07-31T10:05:50;4.10;;;2.53;;
80985;SDS011;70451;51.226;6.412;2023-07-31T10:08:08;5.40;;;2.85;;
80985;SDS011;70451;51.226;6.412;2023-07-31T10:10:24;6.13;;;2.47;;
80985;SDS011;70451;51.226;6.412;2023-07-31T10:12:40;6.57;;;2.97;;
80985;SDS011;70451;51.226;6.412;2023-07-31T10:14:57;5.97;;;2.88;;
80985;SDS011;70451;51.226;6.412;2023-07-31T10:17:14;6.13;;;2.90;;
80985;SDS011;70451;51.226;6.412;2023-07-31T10:19:31;5.00;;;2.83;;
80985;SDS011;70451;51.226;6.412;2023-07-31T10:21:48;5.75;;;2.83;;
80985;SDS011;70451;51.226;6.412;2023-07-31T10:24:04;4.95;;;2.58;;
80985;SDS011;70451;51.226;6.412;2023-07-31T10:26:20;5.57;;;2.55;;
80985;SDS011;70451;51.226;6.412;2023-07-31T10:30:54;4.43;;;1.98;;
80985;SDS011;70451;51.226;6.412;2023-07-31T10:33:10;6.28;;;3.17;;
80985;SDS011;70451;51.226;6.412;2023-07-31T10:35:25;4.97;;;2.33;;
80985;SDS011;70451;51.226;6.412;2023-07-31T10:37:42;7.00;;;2.53;;
80985;SDS011;70451;51.226;6.412;2023-07-31T10:40:05;5.43;;;2.70;;
80985;SDS011;70451;51.226;6.412;2023-07-31T10:42:28;4.60;;;2.90;;
80985;SDS011;70451;51.226;6.412;2023-07-31T10:44:47;6.15;;;2.42;;
80985;SDS011;70451;51.226;6.412;2023-07-31T10:47:02;6.57;;;2.33;;
80985;SDS011;70451;51.226;6.412;2023-07-31T10:49:20;3.85;;;2.72;;
80985;SDS011;70451;51.226;6.412;2023-07-31T10:51:36;4.80;;;2.78;;
80985;SDS011;70451;51.226;6.412;2023-07-31T10:53:51;3.45;;;2.33;;
80985;SDS011;70451;51.226;6.412;2023-07-31T10:56:25;3.92;;;2.33;;
80985;SDS011;70451;51.226;6.412;2023-07-31T10:58:42;3.60;;;2.20;;
80985;SDS011;70451;51.226;6.412;2023-07-31T11:01:00;4.78;;;2.30;;
80985;SDS011;70451;51.226;6.412;2023-07-31T11:03:19;5.95;;;2.42;;
80985;SDS011;70451;51.226;6.412;2023-07-31T11:07:58;6.35;;;2.72;;
80985;SDS011;70451;51.226;6.412;2023-07-31T11:10:20;5.30;;;2.45;;
80985;SDS011;70451;51.226;6.412;2023-07-31T11:12:37;4.63;;;2.30;;
80985;SDS011;70451;51.226;6.412;2023-07-31T11:14:57;4.47;;;2.20;;
80985;SDS011;70451;51.226;6.412;2023-07-31T11:17:12;5.03;;;2.40;;
80985;SDS011;70451;51.226;6.412;2023-07-31T11:19:28;3.65;;;2.13;;
80985;SDS011;70451;51.226;6.412;2023-07-31T11:21:43;5.93;;;2.42;;
80985;SDS011;70451;51.226;6.412;2023-07-31T11:23:59;4.53;;;2.20;;
80985;SDS011;70451;51.226;6.412;2023-07-31T11:26:14;4.75;;;2.17;;
80985;SDS011;70451;51.226;6.412;2023-07-31T11:28:33;3.58;;;2.40;;
80985;SDS011;70451;51.226;6.412;2023-07-31T11:30:50;4.15;;;2.35;;
80985;SDS011;70451;51.226;6.412;2023-07-31T11:33:05;3.33;;;2.13;;
80985;SDS011;70451;51.226;6.412;2023-07-31T11:35:21;3.10;;;2.03;;
80985;SDS011;70451;51.226;6.412;2023-07-31T11:37:41;4.03;;;2.42;;
80985;SDS011;70451;51.226;6.412;2023-07-31T11:40:00;4.60;;;2.17;;
80985;SDS011;70451;51.226;6.412;2023-07-31T11:42:15;4.78;;;2.08;;
80985;SDS011;70451;51.226;6.412;2023-07-31T11:44:38;4.43;;;1.98;;
80985;SDS011;70451;51.226;6.412;2023-07-31T11:49:11;4.28;;;2.03;;
80985;SDS011;70451;51.226;6.412;2023-07-31T11:51:27;3.83;;;2.03;;
80985;SDS011;70451;51.226;6.412;2023-07-31T11:56:05;4.35;;;1.83;;
80985;SDS011;70451;51.226;6.412;2023-07-31T11:58:23;4.28;;;2.17;;
80985;SDS011;70451;51.226;6.412;2023-07-31T12:00:39;3.95;;;2.10;;
80985;SDS011;70451;51.226;6.412;2023-07-31T12:02:54;3.70;;;1.95;;
80985;SDS011;70451;51.226;6.412;2023-07-31T12:05:10;4.25;;;2.47;;
80985;SDS011;70451;51.226;6.412;2023-07-31T12:07:27;5.13;;;2.10;;
80985;SDS011;70451;51.226;6.412;2023-07-31T12:09:54;3.95;;;2.03;;
80985;SDS011;70451;51.226;6.412;2023-07-31T12:12:10;3.40;;;1.90;;
80985;SDS011;70451;51.226;6.412;2023-07-31T12:14:26;2.83;;;1.80;;
80985;SDS011;70451;51.226;6.412;2023-07-31T12:16:45;4.35;;;2.30;;
80985;SDS011;70451;51.226;6.412;2023-07-31T12:19:01;3.28;;;2.25;;
80985;SDS011;70451;51.226;6.412;2023-07-31T12:21:16;4.15;;;2.28;;
80985;SDS011;70451;51.226;6.412;2023-07-31T12:23:32;4.10;;;2.35;;
80985;SDS011;70451;51.226;6.412;2023-07-31T12:25:54;3.25;;;2.45;;
80985;SDS011;70451;51.226;6.412;2023-07-31T12:28:15;3.35;;;2.10;;
80985;SDS011;70451;51.226;6.412;2023-07-31T12:30:34;4.97;;;2.38;;
80985;SDS011;70451;51.226;6.412;2023-07-31T12:32:49;6.13;;;2.22;;
80985;SDS011;70451;51.226;6.412;2023-07-31T12:35:06;4.90;;;2.20;;
80985;SDS011;70451;51.226;6.412;2023-07-31T12:37:21;5.00;;;2.40;;
80985;SDS011;70451;51.226;6.412;2023-07-31T12:39:37;3.67;;;2.08;;
80985;SDS011;70451;51.226;6.412;2023-07-31T12:41:52;5.18;;;2.47;;
80985;SDS011;70451;51.226;6.412;2023-07-31T12:44:08;5.63;;;2.22;;
80985;SDS011;70451;51.226;6.412;2023-07-31T12:46:24;4.20;;;2.45;;
80985;SDS011;70451;51.226;6.412;2023-07-31T12:48:40;4.68;;;2.63;;
80985;SDS011;70451;51.226;6.412;2023-07-31T12:50:55;4.60;;;2.53;;
80985;SDS011;70451;51.226;6.412;2023-07-31T12:53:10;6.47;;;2.65;;
80985;SDS011;70451;51.226;6.412;2023-07-31T12:55:26;4.25;;;2.75;;
80985;SDS011;70451;51.226;6.412;2023-07-31T12:57:41;5.80;;;2.53;;
80985;SDS011;70451;51.226;6.412;2023-07-31T12:59:57;4.40;;;3.00;;
80985;SDS011;70451;51.226;6.412;2023-07-31T13:02:12;4.63;;;2.45;;
80985;SDS011;70451;51.226;6.412;2023-07-31T13:04:27;5.07;;;2.58;;
80985;SDS011;70451;51.226;6.412;2023-07-31T13:06:42;5.07;;;3.05;;
80985;SDS011;70451;51.226;6.412;2023-07-31T13:08:58;6.40;;;2.60;;
80985;SDS011;70451;51.226;6.412;2023-07-31T13:11:13;5.13;;;2.55;;
80985;SDS011;70451;51.226;6.412;2023-07-31T13:13:28;5.05;;;3.35;;
80985;SDS011;70451;51.226;6.412;2023-07-31T13:15:45;4.47;;;2.42;;
80985;SDS011;70451;51.226;6.412;2023-07-31T13:18:00;5.10;;;2.95;;
80985;SDS011;70451;51.226;6.412;2023-07-31T13:20:16;5.63;;;2.60;;
80985;SDS011;70451;51.226;6.412;2023-07-31T13:22:31;4.03;;;2.42;;
80985;SDS011;70451;51.226;6.412;2023-07-31T13:24:46;6.13;;;2.90;;
80985;SDS011;70451;51.226;6.412;2023-07-31T13:27:02;4.13;;;2.88;;
80985;SDS011;70451;51.226;6.412;2023-07-31T13:29:18;4.07;;;2.35;;
80985;SDS011;70451;51.226;6.412;2023-07-31T13:31:34;6.95;;;2.42;;
80985;SDS011;70451;51.226;6.412;2023-07-31T13:33:49;4.05;;;2.17;;
80985;SDS011;70451;51.226;6.412;2023-07-31T13:36:04;4.95;;;2.35;;
80985;SDS011;70451;51.226;6.412;2023-07-31T13:38:20;5.22;;;2.30;;
80985;SDS011;70451;51.226;6.412;2023-07-31T13:40:35;5.93;;;2.70;;
80985;SDS011;70451;51.226;6.412;2023-07-31T13:42:50;4.10;;;2.63;;
80985;SDS011;70451;51.226;6.412;2023-07-31T13:45:06;5.70;;;2.42;;
80985;SDS011;70451;51.226;6.412;2023-07-31T13:47:21;3.97;;;2.53;;
80985;SDS011;70451;51.226;6.412;2023-07-31T13:49:37;4.07;;;2.38;;
80985;SDS011;70451;51.226;6.412;2023-07-31T13:51:53;3.28;;;2.40;;
80985;SDS011;70451;51.226;6.412;2023-07-31T13:54:09;4.60;;;2.70;;
80985;SDS011;70451;51.226;6.412;2023-07-31T13:56:26;4.32;;;2.33;;